sensor_id;sensor_type;location;lat;lon;timestamp;pressure;altitude;pressure_sealevel;temperature;humidity
21988;BME280;11158;53.404;-1.510;2023-04-19T00:01:24;102014.41;;;8.09;64.87
21988;BME280;11158;53.404;-1.510;2023-04-19T00:04:08;102013.56;;;7.76;66.62
21988;BME280;11158;53.404;-1.510;2023-04-19T00:06:52;102007.72;;;7.83;66.20
21988;BME280;11158;53.404;-1.510;2023-04-19T00:09:36;102009.13;;;8.19;65.10
21988;BME280;11158;53.404;-1.510;2023-04-19T00:12:20;102006.75;;;7.84;65.73
21988;BME280;11158;53.404;-1.510;2023-04-19T00:15:05;102008.63;;;7.72;66.01
21988;BME280;11158;53.404;-1.510;2023-04-19T00:17:49;102007.09;;;7.90;65.58
21988;BME280;11158;53.404;-1.510;2023-04-19T00:20:34;102006.78;;;8.26;63.56
21988;BME280;11158;53.404;-1.510;2023-04-19T00:23:18;102008.19;;;7.88;65.69
21988;BME280;11158;53.404;-1.510;2023-04-19T00:26:02;102010.00;;;7.55;66.81
21988;BME280;11158;53.404;-1.510;2023-04-19T00:28:47;102000.25;;;7.76;65.66
21988;BME280;11158;53.404;-1.510;2023-04-19T00:31:31;101994.69;;;7.80;65.69
21988;BME280;11158;53.404;-1.510;2023-04-19T00:34:15;101986.50;;;7.92;65.65
21988;BME280;11158;53.404;-1.510;2023-04-19T00:37:00;101981.25;;;7.81;65.54
21988;BME280;11158;53.404;-1.510;2023-04-19T00:39:44;101983.19;;;7.79;65.63
21988;BME280;11158;53.404;-1.510;2023-04-19T00:42:28;101972.44;;;7.69;65.98
21988;BME280;11158;53.404;-1.510;2023-04-19T00:45:12;101967.06;;;8.02;65.18
21988;BME280;11158;53.404;-1.510;2023-04-19T00:47:56;101971.06;;;7.86;65.91
21988;BME280;11158;53.404;-1.510;2023-04-19T00:50:42;101971.88;;;7.87;64.81
21988;BME280;11158;53.404;-1.510;2023-04-19T00:53:26;101963.34;;;8.04;64.93
21988;BME280;11158;53.404;-1.510;2023-04-19T00:56:12;101975.16;;;8.53;62.80
21988;BME280;11158;53.404;-1.510;2023-04-19T00:58:57;101971.16;;;8.69;62.82
21988;BME280;11158;53.404;-1.510;2023-04-19T01:01:41;101969.03;;;8.63;62.82
21988;BME280;11158;53.404;-1.510;2023-04-19T01:04:25;101968.53;;;9.19;60.88
21988;BME280;11158;53.404;-1.510;2023-04-19T01:07:09;101966.81;;;9.08;61.37
21988;BME280;11158;53.404;-1.510;2023-04-19T01:09:54;101979.00;;;9.11;61.63
21988;BME280;11158;53.404;-1.510;2023-04-19T01:12:37;101970.06;;;9.21;60.72
21988;BME280;11158;53.404;-1.510;2023-04-19T01:15:21;101974.16;;;8.85;61.88
21988;BME280;11158;53.404;-1.510;2023-04-19T01:18:06;101971.53;;;8.95;60.84
21988;BME280;11158;53.404;-1.510;2023-04-19T01:20:51;101969.84;;;9.54;60.08
21988;BME280;11158;53.404;-1.510;2023-04-19T01:23:35;101968.53;;;9.29;60.35
21988;BME280;11158;53.404;-1.510;2023-04-19T01:26:20;101969.22;;;8.71;61.65
21988;BME280;11158;53.404;-1.510;2023-04-19T01:29:04;101954.03;;;8.62;62.25
21988;BME280;11158;53.404;-1.510;2023-04-19T01:31:48;101955.09;;;8.38;63.10
21988;BME280;11158;53.404;-1.510;2023-04-19T01:34:36;101953.22;;;8.29;63.08
21988;BME280;11158;53.404;-1.510;2023-04-19T01:37:20;101958.06;;;8.14;63.66
21988;BME280;11158;53.404;-1.510;2023-04-19T01:40:05;101953.81;;;8.53;63.04
21988;BME280;11158;53.404;-1.510;2023-04-19T01:42:49;101958.19;;;8.12;64.00
21988;BME280;11158;53.404;-1.510;2023-04-19T01:45:33;101948.09;;;8.98;61.93
21988;BME280;11158;53.404;-1.510;2023-04-19T01:48:19;101944.28;;;8.51;62.65
21988;BME280;11158;53.404;-1.510;2023-04-19T01:51:03;101944.72;;;8.35;62.94
21988;BME280;11158;53.404;-1.510;2023-04-19T01:53:47;101937.97;;;8.31;63.42
21988;BME280;11158;53.404;-1.510;2023-04-19T01:56:36;101936.59;;;8.57;62.44
21988;BME280;11158;53.404;-1.510;2023-04-19T01:59:20;101933.06;;;8.36;62.68
21988;BME280;11158;53.404;-1.510;2023-04-19T02:02:07;101935.75;;;8.36;63.11
21988;BME280;11158;53.404;-1.510;2023-04-19T02:04:51;101926.56;;;8.80;62.17
21988;BME280;11158;53.404;-1.510;2023-04-19T02:07:36;101917.22;;;8.55;62.60
21988;BME280;11158;53.404;-1.510;2023-04-19T02:10:20;101922.47;;;8.67;61.61
21988;BME280;11158;53.404;-1.510;2023-04-19T02:13:04;101918.47;;;9.01;61.51
21988;BME280;11158;53.404;-1.510;2023-04-19T02:15:48;101917.13;;;8.15;63.59
21988;BME280;11158;53.404;-1.510;2023-04-19T02:18:32;101909.25;;;8.34;63.11
21988;BME280;11158;53.404;-1.510;2023-04-19T02:21:21;101914.78;;;8.83;62.17
21988;BME280;11158;53.404;-1.510;2023-04-19T02:24:05;101913.09;;;8.21;64.04
21988;BME280;11158;53.404;-1.510;2023-04-19T02:26:49;101909.22;;;8.25;64.12
21988;BME280;11158;53.404;-1.510;2023-04-19T02:29:33;101914.41;;;7.84;65.20
21988;BME280;11158;53.404;-1.510;2023-04-19T02:32:17;101911.72;;;8.26;63.78
21988;BME280;11158;53.404;-1.510;2023-04-19T02:35:01;101911.88;;;8.25;64.06
21988;BME280;11158;53.404;-1.510;2023-04-19T02:37:45;101912.03;;;9.14;62.60
21988;BME280;11158;53.404;-1.510;2023-04-19T02:40:30;101904.91;;;8.64;62.32
21988;BME280;11158;53.404;-1.510;2023-04-19T02:43:14;101901.03;;;8.47;63.53
21988;BME280;11158;53.404;-1.510;2023-04-19T02:45:58;101910.25;;;8.64;63.45
21988;BME280;11158;53.404;-1.510;2023-04-19T02:48:42;101905.75;;;9.25;62.09
21988;BME280;11158;53.404;-1.510;2023-04-19T02:51:26;101905.88;;;9.13;62.24
21988;BME280;11158;53.404;-1.510;2023-04-19T02:54:11;101896.75;;;8.66;63.39
21988;BME280;11158;53.404;-1.510;2023-04-19T02:56:55;101897.75;;;8.65;63.22
21988;BME280;11158;53.404;-1.510;2023-04-19T02:59:40;101901.22;;;8.96;63.06
21988;BME280;11158;53.404;-1.510;2023-04-19T03:02:24;101887.63;;;9.67;60.65
21988;BME280;11158;53.404;-1.510;2023-04-19T03:05:09;101897.72;;;9.05;62.88
21988;BME280;11158;53.404;-1.510;2023-04-19T03:07:54;101903.03;;;8.95;63.29
21988;BME280;11158;53.404;-1.510;2023-04-19T03:10:38;101902.00;;;8.77;64.14
21988;BME280;11158;53.404;-1.510;2023-04-19T03:13:22;101898.72;;;9.53;61.63
21988;BME280;11158;53.404;-1.510;2023-04-19T03:16:07;101897.06;;;9.71;61.07
21988;BME280;11158;53.404;-1.510;2023-04-19T03:18:51;101892.72;;;9.51;61.64
21988;BME280;11158;53.404;-1.510;2023-04-19T03:21:35;101895.59;;;9.09;63.67
21988;BME280;11158;53.404;-1.510;2023-04-19T03:24:29;101893.53;;;9.22;62.00
21988;BME280;11158;53.404;-1.510;2023-04-19T03:27:13;101889.41;;;9.96;60.84
21988;BME280;11158;53.404;-1.510;2023-04-19T03:29:57;101889.59;;;9.46;62.12
21988;BME280;11158;53.404;-1.510;2023-04-19T03:32:41;101895.34;;;9.12;63.35
21988;BME280;11158;53.404;-1.510;2023-04-19T03:35:26;101887.94;;;10.21;60.16
21988;BME280;11158;53.404;-1.510;2023-04-19T03:38:11;101891.84;;;9.50;61.98
21988;BME280;11158;53.404;-1.510;2023-04-19T03:40:55;101886.78;;;9.76;62.01
21988;BME280;11158;53.404;-1.510;2023-04-19T03:43:40;101891.28;;;9.08;63.79
21988;BME280;11158;53.404;-1.510;2023-04-19T03:46:24;101889.88;;;9.72;61.95
21988;BME280;11158;53.404;-1.510;2023-04-19T03:49:09;101882.84;;;9.80;61.10
21988;BME280;11158;53.404;-1.510;2023-04-19T03:51:53;101894.53;;;9.60;62.65
21988;BME280;11158;53.404;-1.510;2023-04-19T03:54:37;101897.72;;;9.15;63.72
21988;BME280;11158;53.404;-1.510;2023-04-19T03:57:21;101895.38;;;9.60;63.15
21988;BME280;11158;53.404;-1.510;2023-04-19T04:00:05;101893.41;;;9.33;63.60
21988;BME280;11158;53.404;-1.510;2023-04-19T04:02:50;101890.03;;;9.12;64.70
21988;BME280;11158;53.404;-1.510;2023-04-19T04:05:35;101888.59;;;9.08;65.13
21988;BME280;11158;53.404;-1.510;2023-04-19T04:08:19;101892.41;;;9.34;64.92
21988;BME280;11158;53.404;-1.510;2023-04-19T04:11:03;101881.72;;;9.15;65.18
21988;BME280;11158;53.404;-1.510;2023-04-19T04:13:47;101885.38;;;9.33;64.30
21988;BME280;11158;53.404;-1.510;2023-04-19T04:16:33;101889.59;;;9.36;65.00
21988;BME280;11158;53.404;-1.510;2023-04-19T04:19:20;101882.00;;;9.70;63.99
21988;BME280;11158;53.404;-1.510;2023-04-19T04:22:05;101886.38;;;9.52;64.87
21988;BME280;11158;53.404;-1.510;2023-04-19T04:24:49;101878.91;;;9.65;64.25
21988;BME280;11158;53.404;-1.510;2023-04-19T04:27:33;101887.22;;;9.42;65.20
21988;BME280;11158;53.404;-1.510;2023-04-19T04:30:18;101886.81;;;9.37;65.20
21988;BME280;11158;53.404;-1.510;2023-04-19T04:33:02;101891.00;;;9.50;65.49
21988;BME280;11158;53.404;-1.510;2023-04-19T04:35:46;101875.81;;;9.70;64.44
21988;BME280;11158;53.404;-1.510;2023-04-19T04:38:30;101887.22;;;9.33;66.04
21988;BME280;11158;53.404;-1.510;2023-04-19T04:41:15;101887.03;;;8.95;67.03
21988;BME280;11158;53.404;-1.510;2023-04-19T04:43:59;101891.38;;;8.96;67.39
21988;BME280;11158;53.404;-1.510;2023-04-19T04:46:44;101890.44;;;9.27;66.34
21988;BME280;11158;53.404;-1.510;2023-04-19T04:49:29;101891.56;;;9.73;65.39
21988;BME280;11158;53.404;-1.510;2023-04-19T04:52:13;101892.13;;;9.57;64.95
21988;BME280;11158;53.404;-1.510;2023-04-19T04:54:57;101890.72;;;9.33;66.67
21988;BME280;11158;53.404;-1.510;2023-04-19T04:57:41;101887.19;;;8.94;67.44
21988;BME280;11158;53.404;-1.510;2023-04-19T05:00:25;101890.56;;;8.96;67.96
21988;BME280;11158;53.404;-1.510;2023-04-19T05:03:09;101893.81;;;9.19;67.39
21988;BME280;11158;53.404;-1.510;2023-04-19T05:05:54;101888.09;;;8.64;68.99
21988;BME280;11158;53.404;-1.510;2023-04-19T05:08:39;101889.06;;;9.32;67.72
21988;BME280;11158;53.404;-1.510;2023-04-19T05:11:23;101889.72;;;9.15;67.69
21988;BME280;11158;53.404;-1.510;2023-04-19T05:14:07;101902.47;;;9.01;68.88
21988;BME280;11158;53.404;-1.510;2023-04-19T05:16:51;101895.53;;;8.70;68.85
21988;BME280;11158;53.404;-1.510;2023-04-19T05:19:35;101897.72;;;9.05;68.75
21988;BME280;11158;53.404;-1.510;2023-04-19T05:22:18;101904.75;;;9.55;66.81
21988;BME280;11158;53.404;-1.510;2023-04-19T05:25:05;101902.66;;;9.10;67.92
21988;BME280;11158;53.404;-1.510;2023-04-19T05:27:49;101907.88;;;9.21;67.37
21988;BME280;11158;53.404;-1.510;2023-04-19T05:30:33;101910.38;;;8.63;69.21
21988;BME280;11158;53.404;-1.510;2023-04-19T05:33:17;101904.72;;;8.87;69.00
21988;BME280;11158;53.404;-1.510;2023-04-19T05:36:01;101902.16;;;8.85;68.59
21988;BME280;11158;53.404;-1.510;2023-04-19T05:38:45;101912.06;;;8.64;69.85
21988;BME280;11158;53.404;-1.510;2023-04-19T05:41:29;101912.22;;;8.72;69.68
21988;BME280;11158;53.404;-1.510;2023-04-19T05:44:13;101916.22;;;8.97;68.94
21988;BME280;11158;53.404;-1.510;2023-04-19T05:46:57;101910.38;;;9.13;67.56
21988;BME280;11158;53.404;-1.510;2023-04-19T05:49:41;101911.94;;;9.44;67.04
21988;BME280;11158;53.404;-1.510;2023-04-19T05:52:26;101908.84;;;9.78;65.50
21988;BME280;11158;53.404;-1.510;2023-04-19T05:55:10;101914.28;;;9.18;68.11
21988;BME280;11158;53.404;-1.510;2023-04-19T05:57:53;101915.03;;;9.79;66.24
21988;BME280;11158;53.404;-1.510;2023-04-19T06:00:38;101919.50;;;8.70;68.96
21988;BME280;11158;53.404;-1.510;2023-04-19T06:03:22;101918.41;;;9.32;67.92
21988;BME280;11158;53.404;-1.510;2023-04-19T06:06:06;101913.16;;;9.01;68.50
21988;BME280;11158;53.404;-1.510;2023-04-19T06:08:51;101920.44;;;8.99;68.90
21988;BME280;11158;53.404;-1.510;2023-04-19T06:11:35;101922.47;;;9.17;67.97
21988;BME280;11158;53.404;-1.510;2023-04-19T06:14:19;101923.13;;;8.99;68.55
21988;BME280;11158;53.404;-1.510;2023-04-19T06:17:04;101930.00;;;9.02;68.33
21988;BME280;11158;53.404;-1.510;2023-04-19T06:19:48;101928.56;;;8.88;69.45
21988;BME280;11158;53.404;-1.510;2023-04-19T06:22:32;101924.72;;;9.31;66.91
21988;BME280;11158;53.404;-1.510;2023-04-19T06:25:17;101932.69;;;9.12;68.37
21988;BME280;11158;53.404;-1.510;2023-04-19T06:28:01;101938.59;;;9.15;68.48
21988;BME280;11158;53.404;-1.510;2023-04-19T06:30:45;101936.31;;;9.01;69.08
21988;BME280;11158;53.404;-1.510;2023-04-19T06:33:30;101938.75;;;9.23;68.19
21988;BME280;11158;53.404;-1.510;2023-04-19T06:36:14;101929.63;;;9.36;67.86
21988;BME280;11158;53.404;-1.510;2023-04-19T06:38:59;101936.13;;;8.83;69.02
21988;BME280;11158;53.404;-1.510;2023-04-19T06:41:43;101935.09;;;9.25;68.38
21988;BME280;11158;53.404;-1.510;2023-04-19T06:44:28;101932.84;;;9.20;67.59
21988;BME280;11158;53.404;-1.510;2023-04-19T06:47:12;101934.28;;;9.63;66.62
21988;BME280;11158;53.404;-1.510;2023-04-19T06:49:56;101932.56;;;9.23;67.78
21988;BME280;11158;53.404;-1.510;2023-04-19T06:52:41;101926.84;;;9.37;67.57
21988;BME280;11158;53.404;-1.510;2023-04-19T06:55:25;101924.28;;;10.51;64.31
21988;BME280;11158;53.404;-1.510;2023-04-19T06:58:09;101928.78;;;9.84;65.89
21988;BME280;11158;53.404;-1.510;2023-04-19T07:00:55;101931.88;;;9.40;67.29
21988;BME280;11158;53.404;-1.510;2023-04-19T07:03:39;101936.09;;;9.82;66.35
21988;BME280;11158;53.404;-1.510;2023-04-19T07:06:23;101939.75;;;9.91;66.44
21988;BME280;11158;53.404;-1.510;2023-04-19T07:09:07;101936.38;;;9.30;68.14
21988;BME280;11158;53.404;-1.510;2023-04-19T07:11:51;101933.56;;;9.22;68.05
21988;BME280;11158;53.404;-1.510;2023-04-19T07:14:35;101929.63;;;9.26;67.71
21988;BME280;11158;53.404;-1.510;2023-04-19T07:17:19;101923.09;;;10.16;65.31
21988;BME280;11158;53.404;-1.510;2023-04-19T07:20:04;101931.91;;;9.60;67.26
21988;BME280;11158;53.404;-1.510;2023-04-19T07:22:49;101934.00;;;9.66;67.60
21988;BME280;11158;53.404;-1.510;2023-04-19T07:25:33;101939.34;;;9.56;67.30
21988;BME280;11158;53.404;-1.510;2023-04-19T07:28:17;101940.06;;;9.49;68.05
21988;BME280;11158;53.404;-1.510;2023-04-19T07:31:01;101939.81;;;8.92;69.32
21988;BME280;11158;53.404;-1.510;2023-04-19T07:33:45;101933.28;;;9.54;67.44
21988;BME280;11158;53.404;-1.510;2023-04-19T07:36:29;101937.56;;;10.23;65.61
21988;BME280;11158;53.404;-1.510;2023-04-19T07:39:14;101940.47;;;9.44;68.33
21988;BME280;11158;53.404;-1.510;2023-04-19T07:41:58;101936.75;;;9.06;69.32
21988;BME280;11158;53.404;-1.510;2023-04-19T07:44:44;101948.38;;;8.95;68.93
21988;BME280;11158;53.404;-1.510;2023-04-19T07:47:28;101930.91;;;9.51;68.18
21988;BME280;11158;53.404;-1.510;2023-04-19T07:50:12;101920.50;;;10.44;64.59
21988;BME280;11158;53.404;-1.510;2023-04-19T07:52:56;101931.75;;;9.52;67.57
21988;BME280;11158;53.404;-1.510;2023-04-19T07:55:40;101933.72;;;9.59;67.51
21988;BME280;11158;53.404;-1.510;2023-04-19T07:58:24;101934.97;;;9.36;68.29
21988;BME280;11158;53.404;-1.510;2023-04-19T08:01:09;101934.53;;;9.99;66.10
21988;BME280;11158;53.404;-1.510;2023-04-19T08:03:54;101943.72;;;9.67;67.19
21988;BME280;11158;53.404;-1.510;2023-04-19T08:06:38;101948.31;;;9.26;68.57
21988;BME280;11158;53.404;-1.510;2023-04-19T08:09:22;101945.53;;;9.76;67.65
21988;BME280;11158;53.404;-1.510;2023-04-19T08:12:06;101943.56;;;9.78;66.93
21988;BME280;11158;53.404;-1.510;2023-04-19T08:14:50;101934.19;;;10.41;64.87
21988;BME280;11158;53.404;-1.510;2023-04-19T08:17:34;101928.91;;;10.59;65.03
21988;BME280;11158;53.404;-1.510;2023-04-19T08:20:19;101920.97;;;10.77;64.28
21988;BME280;11158;53.404;-1.510;2023-04-19T08:23:04;101924.00;;;11.09;63.16
21988;BME280;11158;53.404;-1.510;2023-04-19T08:25:51;101929.59;;;11.16;62.48
21988;BME280;11158;53.404;-1.510;2023-04-19T08:28:35;101936.97;;;10.49;64.87
21988;BME280;11158;53.404;-1.510;2023-04-19T08:31:19;101929.31;;;10.92;63.81
21988;BME280;11158;53.404;-1.510;2023-04-19T08:34:04;101927.56;;;10.45;64.32
21988;BME280;11158;53.404;-1.510;2023-04-19T08:36:48;101933.31;;;10.50;64.70
21988;BME280;11158;53.404;-1.510;2023-04-19T08:39:33;101932.84;;;11.10;63.60
21988;BME280;11158;53.404;-1.510;2023-04-19T08:42:17;101922.50;;;10.42;65.11
21988;BME280;11158;53.404;-1.510;2023-04-19T08:45:03;101936.72;;;10.42;65.38
21988;BME280;11158;53.404;-1.510;2023-04-19T08:47:51;101932.81;;;10.92;64.38
21988;BME280;11158;53.404;-1.510;2023-04-19T08:50:37;101931.22;;;10.81;64.47
21988;BME280;11158;53.404;-1.510;2023-04-19T08:53:22;101933.78;;;11.19;63.03
21988;BME280;11158;53.404;-1.510;2023-04-19T08:56:06;101942.34;;;10.39;65.31
21988;BME280;11158;53.404;-1.510;2023-04-19T08:58:51;101944.56;;;10.44;66.40
21988;BME280;11158;53.404;-1.510;2023-04-19T09:01:35;101932.38;;;10.97;63.92
21988;BME280;11158;53.404;-1.510;2023-04-19T09:04:19;101935.41;;;11.11;63.49
21988;BME280;11158;53.404;-1.510;2023-04-19T09:07:04;101927.34;;;11.83;61.09
21988;BME280;11158;53.404;-1.510;2023-04-19T09:10:04;101926.44;;;11.92;61.61
21988;BME280;11158;53.404;-1.510;2023-04-19T09:13:04;101928.16;;;11.58;62.62
21988;BME280;11158;53.404;-1.510;2023-04-19T09:15:48;101932.59;;;11.49;63.10
21988;BME280;11158;53.404;-1.510;2023-04-19T09:18:32;101925.78;;;11.37;62.92
21988;BME280;11158;53.404;-1.510;2023-04-19T09:21:35;101922.09;;;11.73;62.03
21988;BME280;11158;53.404;-1.510;2023-04-19T09:24:36;101927.53;;;12.26;60.67
21988;BME280;11158;53.404;-1.510;2023-04-19T09:27:31;101911.84;;;12.39;60.41
21988;BME280;11158;53.404;-1.510;2023-04-19T09:30:20;101912.25;;;12.95;58.79
21988;BME280;11158;53.404;-1.510;2023-04-19T09:33:08;101918.06;;;12.13;60.79
21988;BME280;11158;53.404;-1.510;2023-04-19T09:35:52;101912.13;;;11.84;61.89
21988;BME280;11158;53.404;-1.510;2023-04-19T09:38:51;101912.09;;;11.58;62.45
21988;BME280;11158;53.404;-1.510;2023-04-19T09:41:52;101919.09;;;11.59;62.82
21988;BME280;11158;53.404;-1.510;2023-04-19T09:44:37;101909.41;;;12.54;60.81
21988;BME280;11158;53.404;-1.510;2023-04-19T09:47:26;101914.53;;;11.69;62.30
21988;BME280;11158;53.404;-1.510;2023-04-19T09:50:12;101902.25;;;12.28;61.01
21988;BME280;11158;53.404;-1.510;2023-04-19T09:52:56;101909.53;;;11.92;61.74
21988;BME280;11158;53.404;-1.510;2023-04-19T09:55:41;101901.88;;;11.97;61.80
21988;BME280;11158;53.404;-1.510;2023-04-19T09:58:26;101897.88;;;11.83;62.28
21988;BME280;11158;53.404;-1.510;2023-04-19T10:01:11;101900.75;;;12.34;60.86
21988;BME280;11158;53.404;-1.510;2023-04-19T10:03:55;101897.03;;;12.01;61.82
21988;BME280;11158;53.404;-1.510;2023-04-19T10:06:41;101890.34;;;11.61;63.12
21988;BME280;11158;53.404;-1.510;2023-04-19T10:09:28;101902.41;;;11.83;62.55
21988;BME280;11158;53.404;-1.510;2023-04-19T10:12:14;101891.25;;;11.87;62.68
21988;BME280;11158;53.404;-1.510;2023-04-19T10:14:59;101886.91;;;12.47;61.00
21988;BME280;11158;53.404;-1.510;2023-04-19T10:17:43;101880.09;;;12.61;60.66
21988;BME280;11158;53.404;-1.510;2023-04-19T10:20:48;101880.25;;;13.18;59.36
21988;BME280;11158;53.404;-1.510;2023-04-19T10:23:33;101875.44;;;12.36;61.46
21988;BME280;11158;53.404;-1.510;2023-04-19T10:26:18;101875.06;;;11.79;63.14
21988;BME280;11158;53.404;-1.510;2023-04-19T10:29:02;101871.09;;;12.01;62.49
21988;BME280;11158;53.404;-1.510;2023-04-19T10:31:49;101879.09;;;12.27;62.40
21988;BME280;11158;53.404;-1.510;2023-04-19T10:34:38;101871.75;;;12.80;60.69
21988;BME280;11158;53.404;-1.510;2023-04-19T10:37:24;101871.66;;;12.90;60.06
21988;BME280;11158;53.404;-1.510;2023-04-19T10:40:09;101870.41;;;13.59;58.59
21988;BME280;11158;53.404;-1.510;2023-04-19T10:43:15;101870.75;;;13.48;58.47
21988;BME280;11158;53.404;-1.510;2023-04-19T10:49:06;101865.69;;;13.53;57.54
21988;BME280;11158;53.404;-1.510;2023-04-19T10:51:56;101865.28;;;12.99;58.72
21988;BME280;11158;53.404;-1.510;2023-04-19T10:54:54;101863.09;;;12.94;58.91
21988;BME280;11158;53.404;-1.510;2023-04-19T10:58:05;101861.69;;;13.49;57.14
21988;BME280;11158;53.404;-1.510;2023-04-19T11:00:49;101862.47;;;13.09;57.48
21988;BME280;11158;53.404;-1.510;2023-04-19T11:06:27;101855.19;;;12.85;56.83
21988;BME280;11158;53.404;-1.510;2023-04-19T11:12:13;101857.31;;;13.40;56.04
21988;BME280;11158;53.404;-1.510;2023-04-19T11:15:05;101850.38;;;13.95;53.37
21988;BME280;11158;53.404;-1.510;2023-04-19T11:17:58;101846.84;;;13.94;54.08
21988;BME280;11158;53.404;-1.510;2023-04-19T11:20:56;101845.41;;;13.59;54.92
21988;BME280;11158;53.404;-1.510;2023-04-19T11:23:46;101844.50;;;13.91;54.03
21988;BME280;11158;53.404;-1.510;2023-04-19T11:26:32;101833.31;;;14.27;53.08
21988;BME280;11158;53.404;-1.510;2023-04-19T11:29:18;101843.78;;;14.93;51.32
21988;BME280;11158;53.404;-1.510;2023-04-19T11:32:15;101838.13;;;13.84;52.93
21988;BME280;11158;53.404;-1.510;2023-04-19T11:35:06;101855.31;;;13.58;54.09
21988;BME280;11158;53.404;-1.510;2023-04-19T11:37:51;101839.31;;;14.37;52.41
21988;BME280;11158;53.404;-1.510;2023-04-19T11:40:36;101837.59;;;13.97;52.92
21988;BME280;11158;53.404;-1.510;2023-04-19T11:43:20;101839.16;;;13.75;53.54
21988;BME280;11158;53.404;-1.510;2023-04-19T11:46:06;101833.72;;;14.55;51.89
21988;BME280;11158;53.404;-1.510;2023-04-19T11:48:52;101824.75;;;15.17;50.38
21988;BME280;11158;53.404;-1.510;2023-04-19T11:51:40;101827.97;;;14.11;52.00
21988;BME280;11158;53.404;-1.510;2023-04-19T11:54:26;101832.44;;;13.79;52.68
21988;BME280;11158;53.404;-1.510;2023-04-19T11:57:10;101823.47;;;14.51;51.46
21988;BME280;11158;53.404;-1.510;2023-04-19T12:00:27;101831.88;;;14.00;51.70
21988;BME280;11158;53.404;-1.510;2023-04-19T12:03:12;101811.44;;;13.82;51.52
21988;BME280;11158;53.404;-1.510;2023-04-19T12:05:58;101823.00;;;13.83;51.85
21988;BME280;11158;53.404;-1.510;2023-04-19T12:08:45;101830.41;;;13.24;52.77
21988;BME280;11158;53.404;-1.510;2023-04-19T12:11:43;101824.09;;;13.49;52.66
21988;BME280;11158;53.404;-1.510;2023-04-19T12:14:28;101822.69;;;13.78;51.83
21988;BME280;11158;53.404;-1.510;2023-04-19T12:17:13;101815.78;;;13.92;51.55
21988;BME280;11158;53.404;-1.510;2023-04-19T12:19:58;101815.41;;;14.03;51.36
21988;BME280;11158;53.404;-1.510;2023-04-19T12:22:42;101809.13;;;13.38;52.57
21988;BME280;11158;53.404;-1.510;2023-04-19T12:25:30;101827.94;;;13.38;52.33
21988;BME280;11158;53.404;-1.510;2023-04-19T12:28:16;101825.38;;;13.12;52.95
21988;BME280;11158;53.404;-1.510;2023-04-19T12:31:00;101831.09;;;13.17;53.14
21988;BME280;11158;53.404;-1.510;2023-04-19T12:33:44;101832.44;;;13.13;52.83
21988;BME280;11158;53.404;-1.510;2023-04-19T12:36:28;101821.38;;;13.25;52.58
21988;BME280;11158;53.404;-1.510;2023-04-19T12:39:13;101806.56;;;13.70;51.52
21988;BME280;11158;53.404;-1.510;2023-04-19T12:41:57;101789.09;;;13.82;49.93
21988;BME280;11158;53.404;-1.510;2023-04-19T12:44:41;101807.03;;;14.37;48.50
21988;BME280;11158;53.404;-1.510;2023-04-19T12:47:25;101799.56;;;14.87;46.58
21988;BME280;11158;53.404;-1.510;2023-04-19T12:50:14;101813.88;;;14.87;46.93
21988;BME280;11158;53.404;-1.510;2023-04-19T12:52:59;101800.44;;;15.25;44.01
21988;BME280;11158;53.404;-1.510;2023-04-19T12:55:43;101790.66;;;15.47;43.68
21988;BME280;11158;53.404;-1.510;2023-04-19T12:58:31;101788.97;;;15.99;42.94
21988;BME280;11158;53.404;-1.510;2023-04-19T13:01:15;101781.16;;;15.89;41.54
21988;BME280;11158;53.404;-1.510;2023-04-19T13:03:59;101792.47;;;15.70;41.71
21988;BME280;11158;53.404;-1.510;2023-04-19T13:06:43;101789.53;;;15.95;42.49
21988;BME280;11158;53.404;-1.510;2023-04-19T13:09:27;101782.38;;;15.11;43.37
21988;BME280;11158;53.404;-1.510;2023-04-19T13:12:12;101800.16;;;14.74;43.47
21988;BME280;11158;53.404;-1.510;2023-04-19T13:14:56;101797.31;;;14.68;42.27
21988;BME280;11158;53.404;-1.510;2023-04-19T13:17:42;101788.31;;;14.83;43.18
21988;BME280;11158;53.404;-1.510;2023-04-19T13:20:26;101778.00;;;15.86;42.30
21988;BME280;11158;53.404;-1.510;2023-04-19T13:23:10;101780.34;;;15.13;42.32
21988;BME280;11158;53.404;-1.510;2023-04-19T13:25:54;101809.41;;;14.72;42.45
21988;BME280;11158;53.404;-1.510;2023-04-19T13:28:40;101783.63;;;14.77;42.33
21988;BME280;11158;53.404;-1.510;2023-04-19T13:31:25;101777.94;;;14.72;42.54
21988;BME280;11158;53.404;-1.510;2023-04-19T13:34:10;101776.63;;;14.68;42.68
21988;BME280;11158;53.404;-1.510;2023-04-19T13:36:54;101773.94;;;15.37;42.07
21988;BME280;11158;53.404;-1.510;2023-04-19T13:39:39;101789.78;;;14.63;40.77
21988;BME280;11158;53.404;-1.510;2023-04-19T13:42:23;101793.22;;;14.01;41.50
21988;BME280;11158;53.404;-1.510;2023-04-19T13:45:08;101790.31;;;14.58;40.58
21988;BME280;11158;53.404;-1.510;2023-04-19T13:47:53;101776.00;;;14.66;37.05
21988;BME280;11158;53.404;-1.510;2023-04-19T13:50:37;101781.53;;;14.64;40.29
21988;BME280;11158;53.404;-1.510;2023-04-19T13:53:36;101765.88;;;15.14;40.16
21988;BME280;11158;53.404;-1.510;2023-04-19T13:56:20;101789.22;;;14.76;39.27
21988;BME280;11158;53.404;-1.510;2023-04-19T13:59:04;101780.59;;;14.18;39.04
21988;BME280;11158;53.404;-1.510;2023-04-19T14:01:49;101783.00;;;13.96;39.01
21988;BME280;11158;53.404;-1.510;2023-04-19T14:04:33;101781.38;;;13.79;38.88
21988;BME280;11158;53.404;-1.510;2023-04-19T14:07:18;101772.47;;;13.78;38.52
21988;BME280;11158;53.404;-1.510;2023-04-19T14:10:02;101767.63;;;14.53;37.04
21988;BME280;11158;53.404;-1.510;2023-04-19T14:12:47;101771.47;;;14.27;37.96
21988;BME280;11158;53.404;-1.510;2023-04-19T14:15:31;101775.31;;;14.24;37.58
21988;BME280;11158;53.404;-1.510;2023-04-19T14:18:15;101766.13;;;14.50;31.87
21988;BME280;11158;53.404;-1.510;2023-04-19T14:20:59;101764.31;;;14.97;31.44
21988;BME280;11158;53.404;-1.510;2023-04-19T14:23:43;101759.47;;;14.69;30.44
21988;BME280;11158;53.404;-1.510;2023-04-19T14:26:28;101769.75;;;14.65;33.84
21988;BME280;11158;53.404;-1.510;2023-04-19T14:29:12;101769.28;;;14.62;34.14